createdAt,value
2022-12-01T00:00:17.516Z,19.50
2022-12-01T00:02:48.445Z,18.60
2022-12-01T00:05:20.181Z,15.50
2022-12-01T00:07:52.256Z,17.90
2022-12-01T00:10:29.051Z,18.50
2022-12-01T00:13:02.196Z,16.30
2022-12-01T00:15:35.735Z,20.50
2022-12-01T00:18:07.442Z,19.00
2022-12-01T00:20:38.298Z,21.00
2022-12-01T00:23:09.853Z,20.10
2022-12-01T00:25:40.642Z,16.60
2022-12-01T00:28:11.422Z,18.10
2022-12-01T00:30:42.197Z,16.30
2022-12-01T00:33:13.023Z,17.00
2022-12-01T00:35:44.061Z,15.60
2022-12-01T00:38:14.972Z,24.10
2022-12-01T00:40:46.342Z,18.30
2022-12-01T00:43:17.129Z,18.20
2022-12-01T00:45:48.111Z,17.60
2022-12-01T00:48:18.988Z,20.40
2022-12-01T00:50:50.400Z,20.60
2022-12-01T00:53:21.484Z,22.60
2022-12-01T00:55:54.135Z,20.20
2022-12-01T00:58:26.137Z,18.80
2022-12-01T01:01:01.825Z,18.10
2022-12-01T01:03:34.362Z,20.90
2022-12-01T01:06:10.114Z,19.50
2022-12-01T01:08:41.930Z,16.20
2022-12-01T01:11:12.757Z,15.60
2022-12-01T01:13:43.505Z,18.10
2022-12-01T01:16:18.000Z,18.80
2022-12-01T01:18:51.452Z,15.40
2022-12-01T01:21:23.567Z,16.80
2022-12-01T01:23:55.517Z,20.20
2022-12-01T01:26:28.816Z,15.40
2022-12-01T01:29:01.725Z,15.40
2022-12-01T01:31:33.865Z,17.00
2022-12-01T01:34:05.067Z,17.50
2022-12-01T01:36:36.026Z,16.80
2022-12-01T01:39:07.019Z,17.90
2022-12-01T01:41:37.803Z,21.50
2022-12-01T01:44:39.302Z,22.20
2022-12-01T01:47:10.666Z,21.10
2022-12-01T01:49:42.443Z,17.40
2022-12-01T01:52:13.359Z,16.10
2022-12-01T01:54:49.191Z,18.10
2022-12-01T01:57:28.018Z,19.00
2022-12-01T02:00:03.645Z,20.00
2022-12-01T02:02:45.470Z,16.80
2022-12-01T02:05:22.071Z,19.70
2022-12-01T02:07:54.607Z,19.60
2022-12-01T02:10:33.911Z,19.10
2022-12-01T02:13:17.137Z,17.40
2022-12-01T02:15:57.126Z,17.80
2022-12-01T02:18:34.750Z,19.40
2022-12-01T02:21:35.347Z,18.50
2022-12-01T02:24:50.854Z,17.50
2022-12-01T02:27:38.426Z,20.70
2022-12-01T02:30:14.133Z,19.00
2022-12-01T02:32:57.023Z,20.70
2022-12-01T02:35:37.848Z,20.50
2022-12-01T02:38:19.580Z,22.10
2022-12-01T02:40:58.467Z,22.80
2022-12-01T02:43:34.046Z,15.70
2022-12-01T02:46:11.451Z,18.90
2022-12-01T02:48:44.497Z,18.50
2022-12-01T02:51:19.321Z,20.80
2022-12-01T02:53:50.650Z,20.40
2022-12-01T02:56:24.530Z,20.30
2022-12-01T02:58:55.533Z,18.90
2022-12-01T03:01:43.279Z,19.60
2022-12-01T03:04:34.552Z,19.90
2022-12-01T03:07:15.601Z,19.40
2022-12-01T03:09:56.302Z,24.70
2022-12-01T03:12:36.280Z,18.00
2022-12-01T03:15:11.731Z,18.20
2022-12-01T03:17:48.365Z,24.10
2022-12-01T03:20:26.308Z,23.30
2022-12-01T03:23:02.779Z,24.80
2022-12-01T03:25:34.606Z,20.80
2022-12-01T03:28:22.612Z,24.00
2022-12-01T03:30:57.550Z,21.00
2022-12-01T03:33:32.861Z,21.80
2022-12-01T03:38:37.417Z,22.80
2022-12-01T03:41:17.882Z,22.40
2022-12-01T03:43:53.427Z,22.50
2022-12-01T03:46:34.324Z,21.00
2022-12-01T03:49:05.935Z,20.20
2022-12-01T03:51:44.948Z,23.20
2022-12-01T03:54:26.838Z,21.70
2022-12-01T03:57:02.802Z,20.10
2022-12-01T03:59:36.222Z,21.00
2022-12-01T04:02:09.001Z,22.10
2022-12-01T04:04:39.817Z,26.70
2022-12-01T04:07:13.607Z,22.00
2022-12-01T04:09:44.690Z,25.00
2022-12-01T04:12:33.060Z,22.10
2022-12-01T04:15:09.263Z,23.70
2022-12-01T04:17:43.439Z,22.30
2022-12-01T04:20:16.890Z,25.40
2022-12-01T04:22:48.761Z,21.70
2022-12-01T04:25:19.748Z,22.20
2022-12-01T04:27:50.521Z,21.00
2022-12-01T04:30:21.883Z,20.40
2022-12-01T04:32:53.063Z,23.00
2022-12-01T04:35:23.812Z,22.30
2022-12-01T04:37:54.645Z,22.00
2022-12-01T04:40:25.470Z,22.10
2022-12-01T04:42:57.108Z,30.20
2022-12-01T04:45:28.027Z,18.90
2022-12-01T04:47:58.883Z,25.90
2022-12-01T04:50:29.772Z,26.70
2022-12-01T04:53:00.689Z,21.10
2022-12-01T04:55:31.744Z,20.20
2022-12-01T04:58:05.053Z,21.10
2022-12-01T05:00:36.399Z,21.00
2022-12-01T05:03:12.124Z,23.30
2022-12-01T05:05:45.641Z,22.30
2022-12-01T05:08:16.500Z,20.90
2022-12-01T05:10:47.537Z,21.70
2022-12-01T05:13:19.981Z,25.70
2022-12-01T05:15:50.879Z,24.20
2022-12-01T05:18:22.171Z,19.10
2022-12-01T05:20:59.020Z,30.70
2022-12-01T05:23:31.724Z,24.40
2022-12-01T05:26:03.692Z,20.70
2022-12-01T05:28:36.703Z,21.00
2022-12-01T05:31:07.987Z,21.70
2022-12-01T05:33:39.008Z,23.40
2022-12-01T05:36:11.362Z,21.80
2022-12-01T05:38:42.185Z,19.60
2022-12-01T05:41:13.537Z,19.70
2022-12-01T05:43:44.335Z,19.80
2022-12-01T05:46:15.283Z,21.10
2022-12-01T05:48:46.868Z,19.70
2022-12-01T05:51:19.074Z,20.30
2022-12-01T05:53:49.945Z,23.00
2022-12-01T05:56:20.915Z,21.20
2022-12-01T05:58:51.689Z,20.60
2022-12-01T06:01:22.817Z,22.10
2022-12-01T06:03:55.221Z,19.60
2022-12-01T06:06:26.317Z,19.30
2022-12-01T06:08:57.457Z,20.20
2022-12-01T06:11:28.299Z,18.80
2022-12-01T06:13:59.103Z,19.90
2022-12-01T06:16:29.946Z,25.80
2022-12-01T06:19:00.898Z,21.70
2022-12-01T06:21:31.783Z,19.10
2022-12-01T06:24:02.584Z,21.50
2022-12-01T06:26:33.658Z,19.20
2022-12-01T06:29:04.585Z,23.10
2022-12-01T06:31:35.619Z,18.20
2022-12-01T06:34:07.005Z,18.40
2022-12-01T06:36:38.017Z,17.30
2022-12-01T06:39:11.319Z,20.80
2022-12-01T06:41:42.386Z,17.20
2022-12-01T06:44:13.615Z,29.20
2022-12-01T06:46:44.674Z,21.00
2022-12-01T06:49:16.208Z,20.50
2022-12-01T06:51:47.755Z,17.60
2022-12-01T06:54:18.889Z,18.80
2022-12-01T06:56:49.838Z,19.00
2022-12-01T06:59:21.003Z,17.20
2022-12-01T07:01:52.261Z,16.50
2022-12-01T07:04:23.105Z,17.50
2022-12-01T07:06:53.939Z,19.80
2022-12-01T07:09:24.922Z,19.00
2022-12-01T07:11:55.770Z,18.60
2022-12-01T07:14:28.156Z,19.90
2022-12-01T07:16:59.175Z,19.10
2022-12-01T07:19:30.079Z,20.00
2022-12-01T07:22:01.055Z,20.90
2022-12-01T07:24:31.921Z,23.60
2022-12-01T07:27:02.763Z,21.80
2022-12-01T07:29:33.591Z,24.50
2022-12-01T07:32:04.550Z,20.90
2022-12-01T07:34:35.462Z,22.80
2022-12-01T07:37:06.270Z,25.30
2022-12-01T07:39:37.615Z,24.20
2022-12-01T07:42:08.667Z,23.80
2022-12-01T07:44:39.503Z,19.30
2022-12-01T07:47:10.378Z,26.30
2022-12-01T07:49:41.904Z,31.80
2022-12-01T07:52:12.733Z,31.70
2022-12-01T07:54:43.602Z,26.00
2022-12-01T07:57:15.145Z,22.60
2022-12-01T07:59:45.971Z,24.80
2022-12-01T08:02:16.899Z,27.00
2022-12-01T08:04:47.864Z,23.80
2022-12-01T08:07:18.827Z,46.60
2022-12-01T08:09:49.794Z,23.10
2022-12-01T08:12:20.863Z,26.70
2022-12-01T08:14:51.680Z,25.60
2022-12-01T08:17:22.774Z,29.20
2022-12-01T08:19:53.617Z,25.10
2022-12-01T08:22:24.459Z,24.80
2022-12-01T08:24:55.265Z,22.80
2022-12-01T08:27:26.076Z,21.70
2022-12-01T08:29:57.018Z,24.70
2022-12-01T08:32:29.761Z,23.90
2022-12-01T08:35:00.636Z,23.30
2022-12-01T08:37:31.706Z,21.90
2022-12-01T08:40:02.673Z,21.40
2022-12-01T08:42:33.560Z,27.10
2022-12-01T08:45:04.839Z,20.80
2022-12-01T08:47:35.950Z,20.60
2022-12-01T08:50:08.364Z,24.70
2022-12-01T08:52:39.849Z,18.70
2022-12-01T08:55:12.194Z,29.70
2022-12-01T08:57:43.109Z,21.90
2022-12-01T09:00:15.397Z,25.20
2022-12-01T09:02:46.463Z,24.30
2022-12-01T09:05:17.589Z,23.40
2022-12-01T09:08:08.752Z,25.90
2022-12-01T09:10:39.651Z,25.90
2022-12-01T09:13:10.453Z,26.20
2022-12-01T09:15:41.377Z,23.90
2022-12-01T09:18:12.284Z,23.30
2022-12-01T09:20:46.022Z,29.10
2022-12-01T09:23:17.002Z,24.90
2022-12-01T09:25:47.888Z,27.30
2022-12-01T09:28:19.130Z,25.80
2022-12-01T09:30:50.087Z,27.20
2022-12-01T09:33:20.900Z,23.10
2022-12-01T09:35:52.049Z,25.20
2022-12-01T09:38:23.004Z,29.90
2022-12-01T09:40:55.416Z,33.30
2022-12-01T09:43:30.640Z,33.80
2022-12-01T09:48:42.442Z,30.10
2022-12-01T09:51:16.838Z,33.00
2022-12-01T09:53:50.692Z,31.00
2022-12-01T09:56:24.866Z,34.70
2022-12-01T09:58:58.648Z,25.00
2022-12-01T10:01:34.591Z,27.80
2022-12-01T10:04:10.884Z,35.80
2022-12-01T10:06:48.381Z,34.10
2022-12-01T10:09:26.728Z,32.30
2022-12-01T10:12:02.552Z,28.00
2022-12-01T10:14:38.069Z,33.10
2022-12-01T10:17:19.997Z,28.40
2022-12-01T10:19:58.096Z,28.80
2022-12-01T10:23:02.519Z,26.00
2022-12-01T10:25:42.587Z,30.10
2022-12-01T10:28:31.972Z,32.10
2022-12-01T10:31:11.262Z,33.90
2022-12-01T10:33:52.488Z,31.20
2022-12-01T10:36:24.242Z,34.70
2022-12-01T10:38:55.609Z,37.30
2022-12-01T10:41:29.806Z,27.70
2022-12-01T10:44:05.650Z,31.20
2022-12-01T10:46:42.541Z,28.90
2022-12-01T10:49:15.961Z,34.30
2022-12-01T10:51:53.462Z,24.10
2022-12-01T10:54:32.527Z,30.40
2022-12-01T10:57:04.530Z,28.90
2022-12-01T10:59:40.996Z,31.80
2022-12-01T11:02:20.940Z,31.70
2022-12-01T11:04:59.191Z,38.30
2022-12-01T11:07:33.350Z,31.50
2022-12-01T11:10:16.745Z,29.30
2022-12-01T11:12:56.564Z,34.30
2022-12-01T11:15:29.698Z,30.00
2022-12-01T11:18:03.096Z,31.90
2022-12-01T11:20:37.370Z,32.00
2022-12-01T11:23:29.828Z,35.70
2022-12-01T11:26:11.022Z,33.70
2022-12-01T11:28:54.369Z,35.10
2022-12-01T11:31:37.745Z,36.50
2022-12-01T11:34:20.436Z,35.80
2022-12-01T11:36:55.759Z,35.90
2022-12-01T11:39:32.581Z,33.30
2022-12-01T11:42:05.797Z,38.10
2022-12-01T11:44:51.252Z,40.70
2022-12-01T11:47:25.241Z,34.20
2022-12-01T11:49:59.324Z,41.70
2022-12-01T11:52:33.194Z,53.70
2022-12-01T11:55:20.933Z,51.50
2022-12-01T11:57:55.903Z,42.80
2022-12-01T12:00:30.658Z,39.60
2022-12-01T12:03:22.421Z,39.30
2022-12-01T12:09:40.151Z,33.30
2022-12-01T12:12:35.913Z,45.10
2022-12-01T12:15:18.867Z,51.10
2022-12-01T12:18:16.615Z,50.10
2022-12-01T12:21:01.404Z,39.60
2022-12-01T12:24:01.097Z,36.80
2022-12-01T12:26:36.441Z,34.90
2022-12-01T12:29:30.724Z,39.20
2022-12-01T12:32:20.611Z,35.80
2022-12-01T12:35:00.369Z,59.70
2022-12-01T12:37:43.771Z,55.70
2022-12-01T12:40:32.915Z,45.00
2022-12-01T12:43:19.891Z,42.80
2022-12-01T12:46:00.684Z,43.30
2022-12-01T12:49:03.988Z,44.90
2022-12-01T12:51:42.023Z,39.30
2022-12-01T12:54:23.552Z,38.70
2022-12-01T12:57:04.635Z,41.50
2022-12-01T12:59:43.441Z,40.00
2022-12-01T13:02:18.252Z,39.40
2022-12-01T13:04:57.657Z,41.60
2022-12-01T13:07:38.025Z,40.90
2022-12-01T13:10:22.980Z,40.80
2022-12-01T13:13:01.810Z,34.60
2022-12-01T13:15:36.518Z,43.00
2022-12-01T13:18:18.064Z,36.20
2022-12-01T13:20:50.820Z,29.00
2022-12-01T13:23:22.949Z,32.00
2022-12-01T13:25:58.633Z,33.50
2022-12-01T13:28:34.477Z,29.80
2022-12-01T13:31:09.033Z,32.60
2022-12-01T13:33:56.993Z,26.00
2022-12-01T13:39:22.722Z,27.70
2022-12-01T13:42:09.471Z,25.90
2022-12-01T13:44:46.071Z,26.40
2022-12-01T13:47:51.449Z,26.40
2022-12-01T13:50:57.999Z,24.80
2022-12-01T13:53:34.862Z,23.00
2022-12-01T13:56:39.669Z,21.70
2022-12-01T13:59:43.881Z,19.20
2022-12-01T14:02:22.644Z,16.80
2022-12-01T14:04:54.210Z,20.10
2022-12-01T14:07:39.911Z,18.10
2022-12-01T14:10:26.251Z,20.00
2022-12-01T14:13:01.077Z,19.40
2022-12-01T14:15:43.556Z,16.90
2022-12-01T14:18:36.969Z,13.10
2022-12-01T14:21:11.146Z,19.60
2022-12-01T14:23:59.475Z,15.90
2022-12-01T14:26:45.023Z,17.10
2022-12-01T14:29:33.201Z,17.10
2022-12-01T14:32:24.873Z,15.80
2022-12-01T14:35:15.977Z,18.30
2022-12-01T14:37:51.003Z,17.90
2022-12-01T14:40:29.624Z,16.70
2022-12-01T14:43:25.105Z,16.60
2022-12-01T14:46:04.185Z,21.60
2022-12-01T14:48:40.451Z,22.70
2022-12-01T14:51:27.162Z,22.50
2022-12-01T14:54:02.306Z,17.90
2022-12-01T14:56:43.000Z,25.40
2022-12-01T14:59:23.098Z,17.60
2022-12-01T15:01:57.553Z,20.40
2022-12-01T15:04:28.453Z,18.50
2022-12-01T15:06:59.697Z,20.80
2022-12-01T15:09:34.929Z,29.20
2022-12-01T15:12:08.354Z,18.70
2022-12-01T15:14:47.635Z,25.70
2022-12-01T15:17:32.064Z,27.10
2022-12-01T15:20:03.416Z,27.80
2022-12-01T15:22:36.168Z,28.90
2022-12-01T15:25:15.046Z,24.60
2022-12-01T15:27:46.773Z,27.30
2022-12-01T15:30:19.267Z,25.00
2022-12-01T15:32:50.604Z,20.70
2022-12-01T15:35:24.465Z,21.80
2022-12-01T15:37:56.584Z,19.70
2022-12-01T15:41:13.284Z,24.50
2022-12-01T15:43:22.414Z,19.90
2022-12-01T15:45:58.181Z,17.90
2022-12-01T15:48:33.617Z,19.80
2022-12-01T15:51:25.738Z,23.10
2022-12-01T15:53:59.456Z,17.60
2022-12-01T15:56:33.102Z,22.10
2022-12-01T15:59:10.855Z,25.90
2022-12-01T16:01:44.827Z,18.00
2022-12-01T16:04:21.174Z,19.30
2022-12-01T16:06:59.739Z,21.90
2022-12-01T16:09:35.392Z,24.90
2022-12-01T16:12:26.577Z,25.10
2022-12-01T16:15:18.392Z,24.40
2022-12-01T16:17:50.952Z,28.50
2022-12-01T16:20:25.951Z,26.90
2022-12-01T16:23:00.072Z,23.50
2022-12-01T16:25:39.712Z,22.00
2022-12-01T16:28:23.565Z,22.20
2022-12-01T16:30:55.086Z,24.10
2022-12-01T16:33:28.087Z,29.10
2022-12-01T16:36:01.582Z,30.00
2022-12-01T16:38:32.722Z,32.60
2022-12-01T16:41:15.622Z,31.00
2022-12-01T16:44:12.640Z,32.10
2022-12-01T16:46:41.265Z,30.60
2022-12-01T16:49:12.273Z,34.60
2022-12-01T16:51:55.370Z,36.20
2022-12-01T16:54:28.493Z,35.20
2022-12-01T16:56:59.321Z,34.40
2022-12-01T16:59:31.086Z,27.20
2022-12-01T17:02:02.791Z,30.40
2022-12-01T17:04:33.797Z,25.10
2022-12-01T17:07:05.153Z,29.60
2022-12-01T17:09:36.133Z,32.60
2022-12-01T17:12:08.073Z,34.00
2022-12-01T17:14:39.322Z,36.10
2022-12-01T17:17:10.638Z,27.20
2022-12-01T17:19:41.527Z,32.90
2022-12-01T17:22:12.411Z,35.20
2022-12-01T17:24:43.233Z,36.30
2022-12-01T17:27:14.113Z,35.60
2022-12-01T17:29:46.398Z,36.70
2022-12-01T17:32:18.317Z,39.20
2022-12-01T17:34:49.433Z,31.90
2022-12-01T17:37:21.358Z,31.90
2022-12-01T17:39:52.646Z,35.20
2022-12-01T17:42:23.506Z,27.50
2022-12-01T17:44:54.394Z,29.00
2022-12-01T17:47:27.645Z,33.70
2022-12-01T17:49:58.504Z,25.40
2022-12-01T17:52:30.091Z,27.00
2022-12-01T17:55:01.096Z,30.10
2022-12-01T17:57:31.995Z,32.20
2022-12-01T18:00:03.037Z,34.20
2022-12-01T18:02:39.549Z,33.50
2022-12-01T18:05:11.553Z,39.20
2022-12-01T18:07:43.281Z,42.10
2022-12-01T18:10:17.694Z,34.20
2022-12-01T18:12:49.142Z,33.70
2022-12-01T18:15:20.085Z,35.10
2022-12-01T18:17:51.177Z,37.40
2022-12-01T18:20:22.952Z,37.50
2022-12-01T18:22:53.765Z,38.40
2022-12-01T18:25:36.095Z,32.10
2022-12-01T18:28:09.959Z,41.80
2022-12-01T18:30:41.540Z,39.70
2022-12-01T18:33:13.421Z,39.40
2022-12-01T18:35:47.649Z,39.20
2022-12-01T18:38:18.457Z,38.80
2022-12-01T18:40:49.288Z,40.00
2022-12-01T18:43:20.526Z,34.70
2022-12-01T18:45:51.815Z,37.40
2022-12-01T18:48:23.030Z,44.60
2022-12-01T18:50:59.427Z,38.80
2022-12-01T18:53:30.862Z,43.70
2022-12-01T18:56:04.911Z,40.30
2022-12-01T18:58:36.296Z,47.20
2022-12-01T19:01:21.409Z,41.80
2022-12-01T19:03:52.582Z,38.80
2022-12-01T19:06:24.557Z,35.40
2022-12-01T19:08:55.991Z,45.70
2022-12-01T19:11:27.110Z,35.10
2022-12-01T19:13:59.577Z,38.10
2022-12-01T19:16:31.775Z,39.80
2022-12-01T19:19:03.262Z,36.50
2022-12-01T19:21:34.284Z,37.80
2022-12-01T19:24:05.375Z,40.30
2022-12-01T19:26:36.590Z,46.80
2022-12-01T19:29:07.955Z,40.70
2022-12-01T19:31:40.408Z,29.90
2022-12-01T19:34:11.545Z,34.10
2022-12-01T19:36:42.545Z,35.90
2022-12-01T19:39:13.455Z,39.00
2022-12-01T19:41:44.681Z,34.20
2022-12-01T19:44:15.673Z,36.40
2022-12-01T19:46:46.907Z,43.20
2022-12-01T19:49:18.116Z,36.40
2022-12-01T19:51:49.372Z,46.70
2022-12-01T19:54:21.704Z,40.90
2022-12-01T19:56:53.030Z,52.60
2022-12-01T19:59:24.381Z,34.40
2022-12-01T20:01:57.075Z,37.00
2022-12-01T20:04:27.947Z,35.10
2022-12-01T20:06:59.182Z,37.70
2022-12-01T20:09:30.048Z,41.00
2022-12-01T20:12:00.986Z,38.80
2022-12-01T20:14:31.887Z,37.30
2022-12-01T20:17:02.860Z,38.90
2022-12-01T20:19:34.011Z,39.80
2022-12-01T20:22:04.918Z,45.00
2022-12-01T20:24:36.718Z,41.30
2022-12-01T20:27:08.309Z,40.50
2022-12-01T20:29:39.391Z,42.20
2022-12-01T20:32:11.313Z,32.90
2022-12-01T20:34:42.178Z,43.70
2022-12-01T20:37:13.335Z,42.20
2022-12-01T20:39:44.175Z,42.00
2022-12-01T20:42:15.261Z,48.20
2022-12-01T20:44:46.509Z,41.90
2022-12-01T20:47:18.626Z,46.20
2022-12-01T20:49:53.053Z,47.70
2022-12-01T20:52:27.781Z,40.10
2022-12-01T20:54:58.655Z,44.40
2022-12-01T20:57:30.489Z,41.40
2022-12-01T21:00:01.423Z,40.30
2022-12-01T21:02:32.443Z,38.70
2022-12-01T21:05:03.425Z,38.30
2022-12-01T21:07:34.876Z,43.10
2022-12-01T21:10:07.083Z,44.00
2022-12-01T21:12:59.174Z,34.40
2022-12-01T21:15:32.450Z,30.50
2022-12-01T21:18:05.563Z,50.60
2022-12-01T21:20:40.247Z,44.10
2022-12-01T21:23:15.625Z,36.40
2022-12-01T21:25:48.058Z,40.80
2022-12-01T21:28:22.590Z,48.40
2022-12-01T21:31:00.256Z,50.50
2022-12-01T21:33:35.083Z,36.70
2022-12-01T21:36:14.860Z,39.70
2022-12-01T21:38:46.620Z,41.00
2022-12-01T21:41:24.867Z,43.20
2022-12-01T21:43:57.430Z,49.10
2022-12-01T21:46:29.501Z,35.70
2022-12-01T21:49:02.042Z,33.00
2022-12-01T21:51:32.901Z,43.20
2022-12-01T21:54:04.901Z,33.30
2022-12-01T21:56:36.150Z,33.40
2022-12-01T21:59:18.672Z,39.60
2022-12-01T22:01:53.269Z,33.70
2022-12-01T22:04:31.346Z,41.40
2022-12-01T22:07:03.540Z,42.90
2022-12-01T22:09:36.984Z,38.00
2022-12-01T22:12:21.546Z,37.20
2022-12-01T22:14:54.418Z,42.60
2022-12-01T22:17:25.275Z,38.90
2022-12-01T22:20:00.945Z,38.40
2022-12-01T22:22:32.845Z,40.30
2022-12-01T22:25:19.677Z,41.40
2022-12-01T22:27:50.513Z,41.90
2022-12-01T22:30:24.020Z,42.40
2022-12-01T22:33:00.287Z,43.10
2022-12-01T22:35:35.155Z,42.40
2022-12-01T22:38:36.112Z,50.90
2022-12-01T22:41:12.157Z,44.10
2022-12-01T22:43:48.621Z,44.00
2022-12-01T22:46:28.499Z,41.80
2022-12-01T22:49:01.323Z,39.90
2022-12-01T22:51:49.840Z,41.00
2022-12-01T22:54:33.650Z,42.10
2022-12-01T22:57:19.626Z,47.80
2022-12-01T22:59:50.699Z,36.10
2022-12-01T23:02:24.891Z,42.00
2022-12-01T23:05:00.108Z,41.30
2022-12-01T23:07:36.610Z,48.40
2022-12-01T23:10:16.148Z,41.10
2022-12-01T23:12:48.815Z,43.20
2022-12-01T23:15:26.841Z,44.30
2022-12-01T23:18:00.005Z,38.50
2022-12-01T23:20:34.651Z,46.80
2022-12-01T23:23:09.519Z,36.50
2022-12-01T23:25:40.843Z,40.50
2022-12-01T23:28:13.734Z,41.80
2022-12-01T23:30:47.503Z,40.00
2022-12-01T23:33:24.588Z,34.70
2022-12-01T23:35:59.641Z,45.60
2022-12-01T23:38:37.271Z,43.00
2022-12-01T23:41:13.724Z,35.10
2022-12-01T23:43:47.183Z,40.90
2022-12-01T23:46:20.325Z,35.60
2022-12-01T23:48:54.777Z,39.70
2022-12-01T23:51:29.576Z,40.60
2022-12-01T23:54:04.490Z,40.30
2022-12-01T23:56:38.861Z,46.50
2022-12-01T23:59:13.853Z,36.60
